createdAt,value
2022-12-17T00:02:18.012Z,3.23
2022-12-17T00:05:39.628Z,3.27
2022-12-17T00:09:00.830Z,3.30
2022-12-17T00:12:22.151Z,3.26
2022-12-17T00:15:43.481Z,3.30
2022-12-17T00:19:06.948Z,3.37
2022-12-17T00:22:28.300Z,3.31
2022-12-17T00:25:49.476Z,3.30
2022-12-17T00:29:10.628Z,3.34
2022-12-17T00:32:31.932Z,3.29
2022-12-17T00:35:53.309Z,3.37
2022-12-17T00:39:14.586Z,3.41
2022-12-17T00:42:35.856Z,3.44
2022-12-17T00:45:57.132Z,3.40
2022-12-17T00:49:19.857Z,3.43
2022-12-17T00:52:40.893Z,3.44
2022-12-17T00:56:01.884Z,3.37
2022-12-17T00:59:24.373Z,3.47
2022-12-17T01:02:45.618Z,3.47
2022-12-17T01:06:07.204Z,3.51
2022-12-17T01:09:28.505Z,3.40
2022-12-17T01:12:49.784Z,3.32
2022-12-17T01:16:10.879Z,3.25
2022-12-17T01:19:32.283Z,3.22
2022-12-17T01:22:53.450Z,3.23
2022-12-17T01:26:17.533Z,3.25
2022-12-17T01:29:41.187Z,3.24
2022-12-17T01:33:02.440Z,3.18
2022-12-17T01:36:23.780Z,3.20
2022-12-17T01:39:45.148Z,3.21
2022-12-17T01:43:08.434Z,3.19
2022-12-17T01:46:31.143Z,3.20
2022-12-17T01:49:52.317Z,3.12
2022-12-17T01:53:17.949Z,3.18
2022-12-17T01:56:40.524Z,3.13
2022-12-17T02:00:09.232Z,3.14
2022-12-17T02:03:38.132Z,3.16
2022-12-17T02:07:13.365Z,3.12
2022-12-17T02:10:54.016Z,3.23
2022-12-17T02:14:24.478Z,3.14
2022-12-17T02:17:54.377Z,3.22
2022-12-17T02:21:19.872Z,3.18
2022-12-17T02:25:02.487Z,3.12
2022-12-17T02:28:24.796Z,3.19
2022-12-17T02:31:48.289Z,3.15
2022-12-17T02:35:10.638Z,3.16
2022-12-17T02:38:38.282Z,3.11
2022-12-17T02:42:10.406Z,3.15
2022-12-17T02:45:32.812Z,3.13
2022-12-17T02:48:55.141Z,3.12
2022-12-17T02:52:16.851Z,3.13
2022-12-17T02:55:37.973Z,3.16
2022-12-17T02:59:00.721Z,3.12
2022-12-17T03:02:21.940Z,3.17
2022-12-17T03:05:45.427Z,3.13
2022-12-17T03:09:07.217Z,3.12
2022-12-17T03:12:30.100Z,3.02
2022-12-17T03:15:51.378Z,3.03
2022-12-17T03:19:12.651Z,2.90
2022-12-17T03:22:33.877Z,2.92
2022-12-17T03:25:55.182Z,2.91
2022-12-17T03:29:16.481Z,2.94
2022-12-17T03:32:37.814Z,2.96
2022-12-17T03:35:58.810Z,2.98
2022-12-17T03:39:19.897Z,3.04
2022-12-17T03:42:41.058Z,2.98
2022-12-17T03:46:02.358Z,3.00
2022-12-17T03:49:24.190Z,2.92
2022-12-17T03:52:45.445Z,2.99
2022-12-17T03:56:06.709Z,2.99
2022-12-17T03:59:28.973Z,2.93
2022-12-17T04:02:50.703Z,3.03
2022-12-17T04:06:12.057Z,2.98
2022-12-17T04:09:33.442Z,2.94
2022-12-17T04:12:54.561Z,2.96
2022-12-17T04:16:15.904Z,3.07
2022-12-17T04:19:37.280Z,3.03
2022-12-17T04:22:58.525Z,2.94
2022-12-17T04:26:19.813Z,3.00
2022-12-17T04:29:41.156Z,2.92
2022-12-17T04:33:08.001Z,3.02
2022-12-17T04:36:29.253Z,2.93
2022-12-17T04:39:50.609Z,2.94
2022-12-17T04:43:11.917Z,2.94
2022-12-17T04:46:33.130Z,2.99
2022-12-17T04:49:54.734Z,2.96
2022-12-17T04:53:24.046Z,2.90
2022-12-17T04:56:45.317Z,2.83
2022-12-17T05:00:06.559Z,2.84
2022-12-17T05:03:33.653Z,2.82
2022-12-17T05:06:55.336Z,2.85
2022-12-17T05:10:16.587Z,2.88
2022-12-17T05:13:38.083Z,2.84
2022-12-17T05:16:59.408Z,2.85
2022-12-17T05:20:20.967Z,2.86
2022-12-17T05:23:42.202Z,2.86
2022-12-17T05:27:03.384Z,2.80
2022-12-17T05:30:25.140Z,2.74
2022-12-17T05:33:46.369Z,2.74
2022-12-17T05:37:07.533Z,2.69
2022-12-17T05:40:29.213Z,2.68
2022-12-17T05:43:50.479Z,2.61
2022-12-17T05:47:11.660Z,2.59
2022-12-17T05:50:32.919Z,2.62
2022-12-17T05:53:55.138Z,2.64
2022-12-17T05:57:16.476Z,2.59
2022-12-17T06:00:37.876Z,2.64
2022-12-17T06:03:59.652Z,2.62
2022-12-17T06:07:20.926Z,2.65
2022-12-17T06:10:42.333Z,2.62
2022-12-17T06:14:04.038Z,2.64
2022-12-17T06:17:25.204Z,2.60
2022-12-17T06:20:46.277Z,2.55
2022-12-17T06:24:07.325Z,2.58
2022-12-17T06:27:28.449Z,2.55
2022-12-17T06:30:49.771Z,2.64
2022-12-17T06:34:11.078Z,2.55
2022-12-17T06:37:32.409Z,2.61
2022-12-17T06:40:53.596Z,2.54
2022-12-17T06:44:14.872Z,2.53
2022-12-17T06:47:36.490Z,2.60
2022-12-17T06:50:57.651Z,2.57
2022-12-17T06:54:18.737Z,2.65
2022-12-17T06:57:45.102Z,2.66
2022-12-17T07:01:09.637Z,2.70
2022-12-17T07:04:31.474Z,2.62
2022-12-17T07:07:52.717Z,2.60
2022-12-17T07:11:13.950Z,2.62
2022-12-17T07:14:35.620Z,2.58
2022-12-17T07:17:56.717Z,2.58
2022-12-17T07:21:18.012Z,2.65
2022-12-17T07:24:39.317Z,2.61
2022-12-17T07:28:00.656Z,2.67
2022-12-17T07:31:21.933Z,2.71
2022-12-17T07:34:43.194Z,2.80
2022-12-17T07:38:04.262Z,2.96
2022-12-17T07:41:25.423Z,3.16
2022-12-17T07:44:46.590Z,3.23
2022-12-17T07:48:13.902Z,3.22
2022-12-17T07:51:35.042Z,3.13
2022-12-17T07:54:56.381Z,3.26
2022-12-17T07:58:19.605Z,3.35
2022-12-17T08:01:40.919Z,3.50
2022-12-17T08:05:02.398Z,3.49
2022-12-17T08:08:31.862Z,3.61
2022-12-17T08:11:53.269Z,3.44
2022-12-17T08:15:14.484Z,3.55
2022-12-17T08:18:35.746Z,3.58
2022-12-17T08:21:57.352Z,3.54
2022-12-17T08:25:18.756Z,3.60
2022-12-17T08:28:55.161Z,3.90
2022-12-17T08:32:16.335Z,4.14
2022-12-17T08:35:37.471Z,4.09
2022-12-17T08:38:58.714Z,4.69
2022-12-17T08:42:20.114Z,5.16
2022-12-17T08:45:41.440Z,5.46
2022-12-17T08:49:03.012Z,5.61
2022-12-17T08:52:24.276Z,6.17
2022-12-17T08:55:45.495Z,6.84
2022-12-17T08:59:06.777Z,6.76
2022-12-17T09:02:29.535Z,7.04
2022-12-17T09:05:50.940Z,7.24
2022-12-17T09:09:12.574Z,10.76
2022-12-17T09:12:33.988Z,10.29
2022-12-17T09:15:55.219Z,9.34
2022-12-17T09:19:16.457Z,10.84
2022-12-17T09:22:39.208Z,12.29
2022-12-17T09:26:00.625Z,14.20
2022-12-17T09:29:22.160Z,14.31
2022-12-17T09:32:43.634Z,14.49
2022-12-17T09:36:05.361Z,14.42
2022-12-17T09:39:26.483Z,14.25
2022-12-17T09:43:00.264Z,14.44
2022-12-17T09:46:33.132Z,15.56
2022-12-17T09:49:55.822Z,11.43
2022-12-17T09:53:19.644Z,11.59
2022-12-17T09:56:45.433Z,11.50
2022-12-17T10:00:06.884Z,12.41
2022-12-17T10:03:39.401Z,9.86
2022-12-17T10:07:00.693Z,9.00
2022-12-17T10:10:34.692Z,8.79
2022-12-17T10:13:56.068Z,9.21
2022-12-17T10:17:17.430Z,12.69
2022-12-17T10:20:59.698Z,13.70
2022-12-17T10:24:25.900Z,13.82
2022-12-17T10:27:47.067Z,13.99
2022-12-17T10:31:08.425Z,14.42
2022-12-17T10:34:46.884Z,14.32
2022-12-17T10:38:08.335Z,13.15
2022-12-17T10:41:46.033Z,13.30
2022-12-17T10:45:07.182Z,12.94
2022-12-17T10:48:45.744Z,14.43
2022-12-17T10:52:08.582Z,15.29
2022-12-17T10:55:45.014Z,14.36
2022-12-17T10:59:09.779Z,10.82
2022-12-17T11:02:39.522Z,9.86
2022-12-17T11:06:00.974Z,9.58
2022-12-17T11:09:23.291Z,9.35
2022-12-17T11:12:57.605Z,9.56
2022-12-17T11:16:39.628Z,10.44
2022-12-17T11:20:22.308Z,11.74
2022-12-17T11:23:44.216Z,12.33
2022-12-17T11:27:10.797Z,12.04
2022-12-17T11:30:34.026Z,10.30
2022-12-17T11:34:10.898Z,9.58
2022-12-17T11:37:32.306Z,10.97
2022-12-17T11:41:04.666Z,10.87
2022-12-17T11:44:41.732Z,10.50
2022-12-17T11:48:18.944Z,10.19
2022-12-17T11:51:47.748Z,8.31
2022-12-17T11:55:41.671Z,7.77
2022-12-17T11:59:33.008Z,6.79
2022-12-17T12:03:00.633Z,6.39
2022-12-17T12:06:30.754Z,6.65
2022-12-17T12:10:24.968Z,6.14
2022-12-17T12:13:56.974Z,6.17
2022-12-17T12:17:36.678Z,5.66
2022-12-17T12:20:58.945Z,5.19
2022-12-17T12:24:45.237Z,5.00
2022-12-17T12:28:21.814Z,4.87
2022-12-17T12:32:19.119Z,4.86
2022-12-17T12:35:44.837Z,5.14
2022-12-17T12:39:11.996Z,5.34
2022-12-17T12:43:16.648Z,5.41
2022-12-17T12:46:40.668Z,5.34
2022-12-17T12:50:08.511Z,5.08
2022-12-17T12:53:31.338Z,4.89
2022-12-17T12:56:55.658Z,4.87
2022-12-17T13:00:16.824Z,4.66
2022-12-17T13:03:59.479Z,4.63
2022-12-17T13:07:02.415Z,4.75
2022-12-17T13:10:28.687Z,4.83
2022-12-17T13:13:39.789Z,4.60
2022-12-17T13:16:45.484Z,4.40
2022-12-17T13:19:57.951Z,4.39
2022-12-17T13:23:09.565Z,4.27
2022-12-17T13:26:31.084Z,4.15
2022-12-17T13:29:37.840Z,4.13
2022-12-17T13:32:47.594Z,4.08
2022-12-17T13:35:59.240Z,4.02
2022-12-17T13:39:26.187Z,3.96
2022-12-17T13:42:31.911Z,3.94
2022-12-17T13:45:38.993Z,3.86
2022-12-17T13:48:41.976Z,3.86
2022-12-17T13:51:45.205Z,3.75
2022-12-17T13:54:48.102Z,3.66
2022-12-17T13:57:52.789Z,3.63
2022-12-17T14:01:07.025Z,3.61
2022-12-17T14:04:29.866Z,3.66
2022-12-17T14:07:35.547Z,3.69
2022-12-17T14:10:38.976Z,3.62
2022-12-17T14:13:44.463Z,3.59
2022-12-17T14:16:50.831Z,3.51
2022-12-17T14:20:02.921Z,3.40
2022-12-17T14:23:34.692Z,3.31
2022-12-17T14:26:48.161Z,3.35
2022-12-17T14:29:51.053Z,3.31
2022-12-17T14:32:53.899Z,3.25
2022-12-17T14:36:02.367Z,3.25
2022-12-17T14:39:16.882Z,3.24
2022-12-17T14:42:25.901Z,3.22
2022-12-17T14:45:29.465Z,3.08
2022-12-17T14:48:52.384Z,3.09
2022-12-17T14:51:55.457Z,3.07
2022-12-17T14:54:58.349Z,3.03
2022-12-17T14:58:11.681Z,2.99
2022-12-17T15:01:16.201Z,3.09
2022-12-17T15:04:19.802Z,3.00
2022-12-17T15:07:28.369Z,3.01
2022-12-17T15:10:32.563Z,3.00
2022-12-17T15:13:35.485Z,2.99
2022-12-17T15:16:38.404Z,2.99
2022-12-17T15:19:41.895Z,2.99
2022-12-17T15:22:45.397Z,3.03
2022-12-17T15:25:50.437Z,2.97
2022-12-17T15:28:53.537Z,2.95
2022-12-17T15:31:56.334Z,2.93
2022-12-17T15:34:59.075Z,2.91
2022-12-17T15:38:02.437Z,2.99
2022-12-17T15:41:26.879Z,2.95
2022-12-17T15:44:29.761Z,2.92
2022-12-17T15:47:32.512Z,2.87
2022-12-17T15:50:35.785Z,2.83
2022-12-17T15:53:39.326Z,2.79
2022-12-17T15:56:42.702Z,2.79
2022-12-17T15:59:45.596Z,2.80
2022-12-17T16:02:49.520Z,2.81
2022-12-17T16:05:53.335Z,2.78
2022-12-17T16:08:56.528Z,2.75
2022-12-17T16:11:59.328Z,2.74
2022-12-17T16:15:02.790Z,2.76
2022-12-17T16:18:05.653Z,2.66
2022-12-17T16:21:09.246Z,2.72
2022-12-17T16:24:12.161Z,2.66
2022-12-17T16:27:18.227Z,2.69
2022-12-17T16:30:21.493Z,2.63
2022-12-17T16:33:24.576Z,2.65
2022-12-17T16:36:27.501Z,2.61
2022-12-17T16:39:30.344Z,2.54
2022-12-17T16:42:33.355Z,2.52
2022-12-17T16:45:36.465Z,2.46
2022-12-17T16:48:39.901Z,2.46
2022-12-17T16:51:43.663Z,2.49
2022-12-17T16:54:46.558Z,2.47
2022-12-17T16:57:49.389Z,2.45
2022-12-17T17:00:55.226Z,2.39
2022-12-17T17:03:58.190Z,2.45
2022-12-17T17:07:01.271Z,2.35
2022-12-17T17:10:04.446Z,2.40
2022-12-17T17:13:07.218Z,2.45
2022-12-17T17:16:11.097Z,2.36
2022-12-17T17:19:14.065Z,2.29
2022-12-17T17:22:16.947Z,2.26
2022-12-17T17:25:19.646Z,2.27
2022-12-17T17:28:22.389Z,2.30
2022-12-17T17:31:46.442Z,2.21
2022-12-17T17:34:48.637Z,2.17
2022-12-17T17:37:51.414Z,2.05
2022-12-17T17:40:58.206Z,2.03
2022-12-17T17:44:04.002Z,2.11
2022-12-17T17:47:06.948Z,1.95
2022-12-17T17:50:10.084Z,1.87
2022-12-17T17:53:12.850Z,1.86
2022-12-17T17:56:19.080Z,1.96
2022-12-17T17:59:29.183Z,1.91
2022-12-17T18:02:35.820Z,1.84
2022-12-17T18:05:41.673Z,1.86
2022-12-17T18:08:45.500Z,1.77
2022-12-17T18:11:48.413Z,1.75
2022-12-17T18:15:13.703Z,1.65
2022-12-17T18:18:14.792Z,1.66
2022-12-17T18:21:19.933Z,1.51
2022-12-17T18:24:23.421Z,1.42
2022-12-17T18:27:26.237Z,1.36
2022-12-17T18:30:29.085Z,1.25
2022-12-17T18:33:31.918Z,1.21
2022-12-17T18:36:40.236Z,1.17
2022-12-17T18:39:43.122Z,1.13
2022-12-17T18:43:04.438Z,1.08
2022-12-17T18:46:07.981Z,1.07
2022-12-17T18:49:13.609Z,0.95
2022-12-17T18:52:17.506Z,0.83
2022-12-17T18:55:20.422Z,0.83
2022-12-17T18:58:23.450Z,0.80
2022-12-17T19:01:27.770Z,0.78
2022-12-17T19:04:33.179Z,0.79
2022-12-17T19:07:36.312Z,0.79
2022-12-17T19:10:39.864Z,0.77
2022-12-17T19:13:43.540Z,0.75
2022-12-17T19:16:46.489Z,0.65
2022-12-17T19:19:49.320Z,0.58
2022-12-17T19:22:52.074Z,0.60
2022-12-17T19:25:54.998Z,0.57
2022-12-17T19:28:59.271Z,0.46
2022-12-17T19:32:02.173Z,0.34
2022-12-17T19:35:05.604Z,0.30
2022-12-17T19:38:08.394Z,0.29
2022-12-17T19:41:17.475Z,0.15
2022-12-17T19:44:21.068Z,0.08
2022-12-17T19:47:24.647Z,0.01
2022-12-17T19:50:27.415Z,-0.05
2022-12-17T19:53:31.274Z,-0.10
2022-12-17T19:56:34.433Z,-0.12
2022-12-17T19:59:37.554Z,-0.08
2022-12-17T20:02:40.690Z,-0.15
2022-12-17T20:05:47.349Z,-0.14
2022-12-17T20:08:50.908Z,-0.05
2022-12-17T20:11:53.799Z,-0.15
2022-12-17T20:14:56.719Z,-0.13
2022-12-17T20:17:59.559Z,-0.16
2022-12-17T20:21:06.674Z,-0.13
2022-12-17T20:24:10.891Z,-0.19
2022-12-17T20:27:13.996Z,-0.32
2022-12-17T20:30:17.106Z,-0.31
2022-12-17T20:33:19.816Z,-0.40
2022-12-17T20:36:23.678Z,-0.39
2022-12-17T20:39:28.185Z,-0.44
2022-12-17T20:42:31.175Z,-0.46
2022-12-17T20:45:34.754Z,-0.40
2022-12-17T20:48:40.101Z,-0.44
2022-12-17T20:51:43.430Z,-0.51
2022-12-17T20:54:46.572Z,-0.60
2022-12-17T20:57:49.326Z,-0.58
2022-12-17T21:00:52.389Z,-0.45
2022-12-17T21:03:57.259Z,-0.47
2022-12-17T21:07:00.799Z,-0.57
2022-12-17T21:10:03.970Z,-0.57
2022-12-17T21:13:38.979Z,-0.73
2022-12-17T21:16:43.582Z,-0.91
2022-12-17T21:19:46.571Z,-0.93
2022-12-17T21:22:49.467Z,-0.98
2022-12-17T21:26:09.944Z,-1.02
2022-12-17T21:29:14.910Z,-1.10
2022-12-17T21:32:17.617Z,-1.22
2022-12-17T21:35:20.461Z,-1.27
2022-12-17T21:38:23.261Z,-1.41
2022-12-17T21:41:38.067Z,-1.59
2022-12-17T21:44:41.833Z,-1.65
2022-12-17T21:47:44.804Z,-1.68
2022-12-17T21:50:47.721Z,-1.73
2022-12-17T21:53:56.047Z,-1.92
2022-12-17T21:56:58.889Z,-1.92
2022-12-17T22:00:01.990Z,-1.83
2022-12-17T22:03:07.256Z,-1.95
2022-12-17T22:06:13.064Z,-2.02
2022-12-17T22:09:23.215Z,-2.03
2022-12-17T22:12:49.278Z,-2.03
2022-12-17T22:15:55.464Z,-2.11
2022-12-17T22:18:59.940Z,-2.15
2022-12-17T22:22:03.031Z,-2.09
2022-12-17T22:25:10.686Z,-2.10
2022-12-17T22:28:15.072Z,-2.19
2022-12-17T22:31:39.587Z,-2.20
2022-12-17T22:35:26.149Z,-2.24
2022-12-17T22:40:52.347Z,-2.18
2022-12-17T22:44:48.775Z,-2.30
2022-12-17T22:45:12.430Z,-2.37
2022-12-17T22:48:16.335Z,-2.23
2022-12-17T22:51:25.334Z,-2.01
2022-12-17T22:54:29.323Z,-2.04
2022-12-17T22:57:37.475Z,-2.02
2022-12-17T23:00:41.093Z,-2.09
2022-12-17T23:03:44.439Z,-2.16
2022-12-17T23:06:47.738Z,-2.21
2022-12-17T23:09:50.874Z,-2.31
2022-12-17T23:12:55.246Z,-2.39
2022-12-17T23:15:58.142Z,-2.47
2022-12-17T23:19:01.979Z,-2.55
2022-12-17T23:22:04.865Z,-2.66
2022-12-17T23:25:08.447Z,-2.56
2022-12-17T23:28:11.429Z,-2.54
2022-12-17T23:31:19.846Z,-2.62
2022-12-17T23:34:22.718Z,-2.71
2022-12-17T23:37:25.659Z,-2.84
2022-12-17T23:40:28.515Z,-2.92
2022-12-17T23:43:31.588Z,-2.89
2022-12-17T23:46:34.505Z,-2.82
2022-12-17T23:49:37.741Z,-2.74
2022-12-17T23:52:40.630Z,-2.80
2022-12-17T23:55:43.496Z,-2.78
2022-12-17T23:58:47.128Z,-2.69
